San Angelo's Hourly Summary for Tuesday, July 10, 2018
Hour Temp
(f)
RH
(%)
Solar Rad.
(MJ/m2)
Rainfall
(in)
Wind
(mph)
7/10/2018 12:00 AM 71 91 0 0 2.73
7/10/2018 1:00 AM 71 92 0 0 0.37
7/10/2018 2:00 AM 71 95 0 0 0.05
7/10/2018 3:00 AM 71 96 0 0 0.33
7/10/2018 4:00 AM 71 94 0 0 0.13
7/10/2018 5:00 AM 71 95 0 0 0.2
7/10/2018 6:00 AM 70 96 0 0 0.66
7/10/2018 7:00 AM 71 92 0.01 0 0.21
7/10/2018 8:00 AM 71 90 0.14 0 0.17
7/10/2018 9:00 AM 73 84 0.38 0 2.62
7/10/2018 10:00 AM 74 81 0.71 0 5.28
7/10/2018 11:00 AM 75 74 0.99 0 4.28
7/10/2018 12:00 PM 79 53 2.29 0 4.52
7/10/2018 1:00 PM 83 42 2.74 0 5.75
7/10/2018 2:00 PM 86 41 3.15 0 5.86
7/10/2018 3:00 PM 89 34 3.2 0 6.47
7/10/2018 4:00 PM 91 30 3.08 0 6.05
7/10/2018 5:00 PM 92 25 2.54 0 7.46
7/10/2018 6:00 PM 93 22 1.97 0 7.45
7/10/2018 7:00 PM 93 23 1.23 0 6.98
7/10/2018 8:00 PM 92 22 0.57 0 7.48
7/10/2018 9:00 PM 90 23 0.08 0 5.8
7/10/2018 10:00 PM 86 27 0 0 2.33
7/10/2018 11:00 PM 83 35 0 0 2.58
Data Summary 79 60 23.08 0.00 3.57